CYVR/YVR METAR and TAF weather

Enter ICAO airport designator
Station Type Date Time Source
CYVR METAR 2022/01/18 07:46 UTC NOAA

CYVR 180746Z 10003KT 6SM -RA BR SCT012 OVC023 06/06 A2999 RMK SC4SC4 SLP158


Station Type Date Time Source
CYVR Decoded METAR 2022/01/18 07:46 UTC NOAA

Vancouver International Air-Port, B. C., Canada (CYVR) 49-11N 123-10W 2M
Jan 18, 2022 - 02:46 AM EST / 2022.01.18 0746 UTC
Wind: from the E (100 degrees) at 3 MPH (3 KT):0
Visibility: 6 mile(s):0
Sky conditions: overcast
Weather: light rain; mist
Temperature: 42 F (6 C)
Dew Point: 42 F (6 C)
Relative Humidity: 100%
Pressure (altimeter): 29.99 in. Hg (1015 hPa)
ob: CYVR 180746Z 10003KT 6SM -RA BR SCT012 OVC023 06/06 A2999 RMK SC4SC4 SLP158
cycle: 8

Station Type Date Time Source
CYVR TAF 2022/01/18 06:42 UTC NOAA

TAF CYVR 180540Z 1806/1912 09006KT 4SM -RA BR SCT003 OVC006
TEMPO 1806/1814 6SM BR SCT008 OVC020
FM181400 09005KT 5SM -DZ BR OVC008
TEMPO 1814/1821 P6SM NSW OVC012
FM182100 08005KT P6SM SCT008 OVC025
TEMPO 1821/1906 5SM -DZ BR BKN008
FM190600 09006KT 3SM -RA BR OVC006
RMK NXT FCST BY 180900Z

Example: see airport list